Weather at Shreveport Downtown Airport

Public forecast

Using degrees Fahrenheit for public forecast. Weather courtesy of forecast.io.

Current aviation weather report (METAR) for Shreveport Downtown Airport

Retrieved 2020/09/25 07:53 UTC (56 minutes ago):

KDTN 250753Z AUTO 00000KT 10SM OVC016 19/18 A2995 RMK AO2 SLP139 T01940178

Closest aviation forecast (TAF) to Shreveport Downtown Airport

Forecast is more than 6 hours old.

Closest forecast is Barksdale Air Force Base, 4.8 nm (8.8 km) ESE. Retrieved 2020-09-25 02:07 UTC (7 hours ago):

TAF KBAD 250200Z 2502/2608 00000KT 9999 OVC025 QNH2989INS BECMG 2509/2510 00000KT 9999 OVC007 QNH2994INS BECMG 2514/2515 36003KT 9999 BKN010 QNH2999INS BECMG 2518/2519 12005KT 9999 SCT030 QNH2993INS BECMG 2605/2606 15005KT 9999 BKN015 QNH2997INS TX25/2521Z TN17/2512Z